createdAt,value
2018-09-15T00:00:28.630Z,965.19
2018-09-15T00:01:28.612Z,965.15
2018-09-15T00:02:28.595Z,965.20
2018-09-15T00:03:28.575Z,965.16
2018-09-15T00:04:29.308Z,965.17
2018-09-15T00:05:28.541Z,965.16
2018-09-15T00:06:28.521Z,965.18
2018-09-15T00:07:28.504Z,965.17
2018-09-15T00:08:28.486Z,965.16
2018-09-15T00:09:28.469Z,965.19
2018-09-15T00:10:28.450Z,965.20
2018-09-15T00:11:28.433Z,965.18
2018-09-15T00:12:28.414Z,965.20
2018-09-15T00:13:28.396Z,965.15
2018-09-15T00:14:28.376Z,965.15
2018-09-15T00:15:28.358Z,965.19
2018-09-15T00:16:28.341Z,965.19
2018-09-15T00:17:28.323Z,965.21
2018-09-15T00:18:28.310Z,965.21
2018-09-15T00:19:28.286Z,965.24
2018-09-15T00:20:28.268Z,965.29
2018-09-15T00:21:28.250Z,965.28
2018-09-15T00:22:28.230Z,965.29
2018-09-15T00:23:28.215Z,965.30
2018-09-15T00:24:28.194Z,965.34
2018-09-15T00:25:28.176Z,965.33
2018-09-15T00:26:28.162Z,965.35
2018-09-15T00:27:28.139Z,965.36
2018-09-15T00:28:28.121Z,965.36
2018-09-15T00:29:28.102Z,965.37
2018-09-15T00:30:28.083Z,965.35
2018-09-15T00:31:28.066Z,965.34
2018-09-15T00:32:28.051Z,965.32
2018-09-15T00:33:28.031Z,965.30
2018-09-15T00:34:28.010Z,965.28
2018-09-15T00:35:27.991Z,965.29
2018-09-15T00:36:27.974Z,965.34
2018-09-15T00:37:27.955Z,965.29
2018-09-15T00:38:27.936Z,965.26
2018-09-15T00:39:27.918Z,965.28
2018-09-15T00:40:28.651Z,965.30
2018-09-15T00:41:27.879Z,965.29
2018-09-15T00:42:27.862Z,965.28
2018-09-15T00:43:27.843Z,965.30
2018-09-15T00:44:27.826Z,965.30
2018-09-15T00:45:27.807Z,965.28
2018-09-15T00:46:27.793Z,965.28
2018-09-15T00:47:27.769Z,965.28
2018-09-15T00:48:27.750Z,965.25
2018-09-15T00:49:27.733Z,965.24
2018-09-15T00:50:27.715Z,965.25
2018-09-15T00:51:27.694Z,965.26
2018-09-15T00:52:27.680Z,965.26
2018-09-15T00:53:27.657Z,965.27
2018-09-15T00:54:27.639Z,965.31
2018-09-15T00:55:27.620Z,965.33
2018-09-15T00:56:27.603Z,965.33
2018-09-15T00:57:27.583Z,965.30
2018-09-15T00:58:27.564Z,965.31
2018-09-15T00:59:27.546Z,965.33
2018-09-15T01:00:27.526Z,965.39
2018-09-15T01:01:27.511Z,965.34
2018-09-15T01:02:27.488Z,965.33
2018-09-15T01:03:27.469Z,965.33
2018-09-15T01:04:27.450Z,965.33
2018-09-15T01:05:27.432Z,965.35
2018-09-15T01:06:27.413Z,965.34
2018-09-15T01:07:27.394Z,965.33
2018-09-15T01:08:27.375Z,965.34
2018-09-15T01:09:27.357Z,965.36
2018-09-15T01:10:27.337Z,965.38
2018-09-15T01:11:27.319Z,965.39
2018-09-15T01:12:27.300Z,965.34
2018-09-15T01:13:27.281Z,965.38
2018-09-15T01:14:27.336Z,965.36
2018-09-15T01:15:27.244Z,965.36
2018-09-15T01:16:27.225Z,965.36
2018-09-15T01:17:27.207Z,965.29
2018-09-15T01:18:27.187Z,965.31
2018-09-15T01:19:27.168Z,965.32
2018-09-15T01:20:27.149Z,965.32
2018-09-15T01:21:27.131Z,965.35
2018-09-15T01:22:27.111Z,965.32
2018-09-15T01:23:27.093Z,965.31
2018-09-15T01:24:27.074Z,965.33
2018-09-15T01:25:27.055Z,965.32
2018-09-15T01:26:27.036Z,965.33
2018-09-15T01:27:27.017Z,965.35
2018-09-15T01:28:26.998Z,965.36
2018-09-15T01:29:26.979Z,965.34
2018-09-15T01:30:26.959Z,965.35
2018-09-15T01:31:26.940Z,965.34
2018-09-15T01:32:26.924Z,965.30
2018-09-15T01:33:26.903Z,965.29
2018-09-15T01:34:26.885Z,965.30
2018-09-15T01:35:26.865Z,965.27
2018-09-15T01:36:26.850Z,965.31
2018-09-15T01:37:26.876Z,965.32
2018-09-15T01:38:26.808Z,965.32
2018-09-15T01:39:26.789Z,965.37
2018-09-15T01:40:26.769Z,965.30
2018-09-15T01:41:26.751Z,965.33
2018-09-15T01:42:26.731Z,965.33
2018-09-15T01:43:26.712Z,965.34
2018-09-15T01:44:26.693Z,965.36
2018-09-15T01:45:26.675Z,965.34
2018-09-15T01:46:26.655Z,965.37
2018-09-15T01:47:26.636Z,965.37
2018-09-15T01:48:26.618Z,965.35
2018-09-15T01:49:26.598Z,965.32
2018-09-15T01:50:26.579Z,965.35
2018-09-15T01:51:26.560Z,965.34
2018-09-15T01:52:26.540Z,965.31
2018-09-15T01:53:27.272Z,965.31
2018-09-15T01:54:26.503Z,965.33
2018-09-15T01:55:26.486Z,965.31
2018-09-15T01:56:26.468Z,965.28
2018-09-15T01:57:26.511Z,965.27
2018-09-15T01:58:26.427Z,965.32
2018-09-15T01:59:26.407Z,965.27
2018-09-15T02:00:26.393Z,965.27
2018-09-15T02:01:26.371Z,965.29
2018-09-15T02:02:26.353Z,965.29
2018-09-15T02:03:26.332Z,965.28
2018-09-15T02:04:26.313Z,965.28
2018-09-15T02:05:26.294Z,965.30
2018-09-15T02:06:26.275Z,965.28
2018-09-15T02:07:26.256Z,965.30
2018-09-15T02:08:26.236Z,965.31
2018-09-15T02:09:26.219Z,965.30
2018-09-15T02:10:26.199Z,965.34
2018-09-15T02:11:26.179Z,965.34
2018-09-15T02:12:26.160Z,965.39
2018-09-15T02:13:26.142Z,965.38
2018-09-15T02:14:26.122Z,965.43
2018-09-15T02:15:26.103Z,965.37
2018-09-15T02:16:26.085Z,965.41
2018-09-15T02:17:26.069Z,965.42
2018-09-15T02:18:26.047Z,965.43
2018-09-15T02:19:26.027Z,965.39
2018-09-15T02:20:26.012Z,965.43
2018-09-15T02:21:25.994Z,965.44
2018-09-15T02:22:26.027Z,965.43
2018-09-15T02:23:25.951Z,965.41
2018-09-15T02:24:25.931Z,965.45
2018-09-15T02:25:25.914Z,965.45
2018-09-15T02:26:25.893Z,965.40
2018-09-15T02:27:25.874Z,965.44
2018-09-15T02:28:25.855Z,965.41
2018-09-15T02:29:25.837Z,965.44
2018-09-15T02:30:25.817Z,965.43
2018-09-15T02:31:25.798Z,965.46
2018-09-15T02:32:25.780Z,965.40
2018-09-15T02:33:25.760Z,965.42
2018-09-15T02:34:25.740Z,965.43
2018-09-15T02:35:25.721Z,965.44
2018-09-15T02:36:25.703Z,965.43
2018-09-15T02:37:25.685Z,965.41
2018-09-15T02:38:25.665Z,965.40
2018-09-15T02:39:25.645Z,965.41
2018-09-15T02:40:25.629Z,965.43
2018-09-15T02:41:25.608Z,965.44
2018-09-15T02:42:25.591Z,965.44
2018-09-15T02:43:25.569Z,965.41
2018-09-15T02:44:25.550Z,965.45
2018-09-15T02:45:25.531Z,965.42
2018-09-15T02:46:25.513Z,965.44
2018-09-15T02:47:25.493Z,965.43
2018-09-15T02:48:25.474Z,965.46
2018-09-15T02:49:25.455Z,965.50
2018-09-15T02:50:25.435Z,965.49
2018-09-15T02:51:25.417Z,965.49
2018-09-15T02:52:25.399Z,965.55
2018-09-15T02:53:25.381Z,965.54
2018-09-15T02:54:25.366Z,965.52
2018-09-15T02:55:25.341Z,965.53
2018-09-15T02:56:25.322Z,965.50
2018-09-15T02:57:25.302Z,965.49
2018-09-15T02:58:25.286Z,965.53
2018-09-15T02:59:25.265Z,965.52
2018-09-15T03:00:25.245Z,965.55
2018-09-15T03:01:25.226Z,965.53
2018-09-15T03:02:25.207Z,965.54
2018-09-15T03:03:25.189Z,965.54
2018-09-15T03:04:25.169Z,965.53
2018-09-15T03:05:25.151Z,965.49
2018-09-15T03:06:25.131Z,965.51
2018-09-15T03:07:25.113Z,965.56
2018-09-15T03:08:25.092Z,965.55
2018-09-15T03:09:25.074Z,965.60
2018-09-15T03:10:25.055Z,965.60
2018-09-15T03:11:25.037Z,965.61
2018-09-15T03:12:25.018Z,965.62
2018-09-15T03:13:24.998Z,965.60
2018-09-15T03:14:24.979Z,965.61
2018-09-15T03:15:24.964Z,965.64
2018-09-15T03:16:24.942Z,965.62
2018-09-15T03:17:24.921Z,965.64
2018-09-15T03:18:24.904Z,965.61
2018-09-15T03:19:24.887Z,965.64
2018-09-15T03:20:24.864Z,965.63
2018-09-15T03:21:24.847Z,965.67
2018-09-15T03:22:26.327Z,965.65
2018-09-15T03:23:24.807Z,965.63
2018-09-15T03:24:24.787Z,965.63
2018-09-15T03:25:24.768Z,965.66
2018-09-15T03:26:24.750Z,965.70
2018-09-15T03:27:24.731Z,965.71
2018-09-15T03:28:24.712Z,965.68
2018-09-15T03:29:24.694Z,965.71
2018-09-15T03:30:24.678Z,965.72
2018-09-15T03:31:24.654Z,965.75
2018-09-15T03:32:24.637Z,965.74
2018-09-15T03:33:24.615Z,965.74
2018-09-15T03:34:24.598Z,965.72
2018-09-15T03:35:24.576Z,965.74
2018-09-15T03:36:24.557Z,965.78
2018-09-15T03:37:24.539Z,965.80
2018-09-15T03:38:24.518Z,965.84
2018-09-15T03:39:24.504Z,965.87
2018-09-15T03:40:24.481Z,965.86
2018-09-15T03:41:24.503Z,965.87
2018-09-15T03:42:24.441Z,965.87
2018-09-15T03:43:24.424Z,965.89
2018-09-15T03:44:24.404Z,965.92
2018-09-15T03:45:24.385Z,965.90
2018-09-15T03:46:24.365Z,965.93
2018-09-15T03:47:24.345Z,965.93
2018-09-15T03:48:24.326Z,965.93
2018-09-15T03:49:24.313Z,965.95
2018-09-15T03:50:24.289Z,965.94
2018-09-15T03:51:24.271Z,965.98
2018-09-15T03:52:24.252Z,965.95
2018-09-15T03:53:24.233Z,965.96
2018-09-15T03:54:24.212Z,965.96
2018-09-15T03:55:24.196Z,965.95
2018-09-15T03:56:24.176Z,965.95
2018-09-15T03:57:24.156Z,965.94
2018-09-15T03:58:24.134Z,965.93
2018-09-15T03:59:24.117Z,965.96
2018-09-15T04:00:24.101Z,965.97
2018-09-15T04:01:24.079Z,965.98
2018-09-15T04:02:24.058Z,965.96
2018-09-15T04:03:24.040Z,965.95
2018-09-15T04:04:24.031Z,965.98
2018-09-15T04:05:24.001Z,965.97
2018-09-15T04:06:23.981Z,965.99
2018-09-15T04:07:23.962Z,966.02
2018-09-15T04:08:23.942Z,966.01
2018-09-15T04:09:23.925Z,966.07
2018-09-15T04:10:23.904Z,966.06
2018-09-15T04:11:23.889Z,966.08
2018-09-15T04:12:23.866Z,966.09
2018-09-15T04:13:23.846Z,966.12
2018-09-15T04:14:23.827Z,966.12
2018-09-15T04:15:23.808Z,966.09
2018-09-15T04:16:23.788Z,966.11
2018-09-15T04:17:23.772Z,966.13
2018-09-15T04:18:23.752Z,966.12
2018-09-15T04:19:23.731Z,966.15
2018-09-15T04:20:23.711Z,966.15
2018-09-15T04:21:23.694Z,966.15
2018-09-15T04:22:23.673Z,966.16
2018-09-15T04:23:23.654Z,966.16
2018-09-15T04:24:23.636Z,966.17
2018-09-15T04:25:23.616Z,966.15
2018-09-15T04:26:23.599Z,966.20
2018-09-15T04:27:23.577Z,966.17
2018-09-15T04:28:23.620Z,966.20
2018-09-15T04:29:23.546Z,966.18
2018-09-15T04:30:23.520Z,966.21
2018-09-15T04:31:23.501Z,966.21
2018-09-15T04:32:23.482Z,966.22
2018-09-15T04:33:23.463Z,966.23
2018-09-15T04:34:23.444Z,966.25
2018-09-15T04:35:23.425Z,966.19
2018-09-15T04:36:23.424Z,966.18
2018-09-15T04:37:23.388Z,966.22
2018-09-15T04:38:24.118Z,966.18
2018-09-15T04:39:23.348Z,966.20
2018-09-15T04:40:23.330Z,966.17
2018-09-15T04:41:23.311Z,966.18
2018-09-15T04:42:23.292Z,966.17
2018-09-15T04:43:23.273Z,966.19
2018-09-15T04:44:23.256Z,966.24
2018-09-15T04:45:23.281Z,966.22
2018-09-15T04:46:23.221Z,966.28
2018-09-15T04:47:23.196Z,966.27
2018-09-15T04:48:23.185Z,966.26
2018-09-15T04:49:23.159Z,966.28
2018-09-15T04:50:23.138Z,966.29
2018-09-15T04:51:23.120Z,966.35
2018-09-15T04:52:23.100Z,966.31
2018-09-15T04:53:23.081Z,966.36
2018-09-15T04:54:23.062Z,966.35
2018-09-15T04:55:23.043Z,966.34
2018-09-15T04:56:23.023Z,966.36
2018-09-15T04:57:23.004Z,966.37
2018-09-15T04:58:22.987Z,966.38
2018-09-15T04:59:22.966Z,966.37
2018-09-15T05:00:22.946Z,966.42
2018-09-15T05:01:22.927Z,966.42
2018-09-15T05:02:22.906Z,966.46
2018-09-15T05:03:22.888Z,966.43
2018-09-15T05:04:22.869Z,966.41
2018-09-15T05:05:22.851Z,966.47
2018-09-15T05:06:22.831Z,966.43
2018-09-15T05:07:22.811Z,966.43
2018-09-15T05:08:22.793Z,966.43
2018-09-15T05:09:22.773Z,966.42
2018-09-15T05:10:22.754Z,966.41
2018-09-15T05:11:22.734Z,966.41
2018-09-15T05:12:22.781Z,966.43
2018-09-15T05:13:22.696Z,966.44
2018-09-15T05:14:22.676Z,966.46
2018-09-15T05:15:22.657Z,966.48
2018-09-15T05:16:22.638Z,966.46
2018-09-15T05:17:22.619Z,966.48
2018-09-15T05:18:22.601Z,966.49
2018-09-15T05:19:22.581Z,966.48
2018-09-15T05:20:22.562Z,966.50
2018-09-15T05:21:22.542Z,966.53
2018-09-15T05:22:22.522Z,966.53
2018-09-15T05:23:22.504Z,966.49
2018-09-15T05:24:22.486Z,966.54
2018-09-15T05:25:22.467Z,966.54
2018-09-15T05:26:22.445Z,966.58
2018-09-15T05:27:22.426Z,966.60
2018-09-15T05:28:22.407Z,966.59
2018-09-15T05:29:22.389Z,966.66
2018-09-15T05:30:22.368Z,966.65
2018-09-15T05:31:22.351Z,966.62
2018-09-15T05:32:22.330Z,966.59
2018-09-15T05:33:22.310Z,966.65
2018-09-15T05:34:22.295Z,966.67
2018-09-15T05:35:22.272Z,966.69
2018-09-15T05:36:22.254Z,966.72
2018-09-15T05:37:22.234Z,966.73
2018-09-15T05:38:22.216Z,966.72
2018-09-15T05:39:22.196Z,966.77
2018-09-15T05:40:22.176Z,966.79
2018-09-15T05:41:22.157Z,966.79
2018-09-15T05:42:22.136Z,966.79
2018-09-15T05:43:22.117Z,966.82
2018-09-15T05:44:22.149Z,966.81
2018-09-15T05:45:22.080Z,966.84
2018-09-15T05:46:22.060Z,966.83
2018-09-15T05:47:22.045Z,966.83
2018-09-15T05:48:22.022Z,966.87
2018-09-15T05:49:22.003Z,966.91
2018-09-15T05:50:21.983Z,966.88
2018-09-15T05:51:21.964Z,966.91
2018-09-15T05:52:22.696Z,966.91
2018-09-15T05:53:21.927Z,966.92
2018-09-15T05:54:21.906Z,966.94
2018-09-15T05:55:21.888Z,966.97
2018-09-15T05:56:21.868Z,966.97
2018-09-15T05:57:21.849Z,966.96
2018-09-15T05:58:21.830Z,966.97
2018-09-15T05:59:21.811Z,966.95
2018-09-15T06:00:21.840Z,966.97
2018-09-15T06:01:21.775Z,966.98
2018-09-15T06:02:21.754Z,966.98
2018-09-15T06:03:21.736Z,967.00
2018-09-15T06:04:21.718Z,967.03
2018-09-15T06:05:21.702Z,967.04
2018-09-15T06:06:21.677Z,967.04
2018-09-15T06:07:21.666Z,967.03
2018-09-15T06:08:21.640Z,967.02
2018-09-15T06:09:21.622Z,967.03
2018-09-15T06:10:21.601Z,967.03
2018-09-15T06:11:21.584Z,967.02
2018-09-15T06:12:21.564Z,967.04
2018-09-15T06:13:21.547Z,967.06
2018-09-15T06:14:21.527Z,967.07
2018-09-15T06:15:21.510Z,967.08
2018-09-15T06:16:21.488Z,967.08
2018-09-15T06:17:21.470Z,967.06
2018-09-15T06:18:21.450Z,967.09
2018-09-15T06:19:22.182Z,967.10
2018-09-15T06:20:21.412Z,967.09
2018-09-15T06:21:21.394Z,967.10
2018-09-15T06:22:21.375Z,967.13
2018-09-15T06:23:21.356Z,967.10
2018-09-15T06:24:21.337Z,967.08
2018-09-15T06:25:21.319Z,967.08
2018-09-15T06:26:21.299Z,967.10
2018-09-15T06:27:21.280Z,967.08
2018-09-15T06:28:21.263Z,967.07
2018-09-15T06:29:21.243Z,967.08
2018-09-15T06:30:21.224Z,967.07
2018-09-15T06:31:21.204Z,967.12
2018-09-15T06:32:21.186Z,967.15
2018-09-15T06:33:21.167Z,967.15
2018-09-15T06:34:21.148Z,967.13
2018-09-15T06:35:21.135Z,967.15
2018-09-15T06:36:21.171Z,967.19
2018-09-15T06:37:21.092Z,967.20
2018-09-15T06:38:21.072Z,967.19
2018-09-15T06:39:21.113Z,967.17
2018-09-15T06:40:21.034Z,967.17
2018-09-15T06:41:21.019Z,967.18
2018-09-15T06:42:20.996Z,967.15
2018-09-15T06:43:20.977Z,967.17
2018-09-15T06:44:20.959Z,967.15
2018-09-15T06:45:21.010Z,967.14
2018-09-15T06:46:20.922Z,967.14
2018-09-15T06:47:20.903Z,967.13
2018-09-15T06:48:20.884Z,967.15
2018-09-15T06:49:20.865Z,967.19
2018-09-15T06:50:20.844Z,967.21
2018-09-15T06:51:20.831Z,967.20
2018-09-15T06:52:20.808Z,967.23
2018-09-15T06:53:20.789Z,967.26
2018-09-15T06:54:20.768Z,967.23
2018-09-15T06:55:20.753Z,967.26
2018-09-15T06:56:20.730Z,967.26
2018-09-15T06:57:20.737Z,967.31
2018-09-15T06:58:20.692Z,967.32
2018-09-15T06:59:20.676Z,967.31
2018-09-15T07:00:20.657Z,967.30
2018-09-15T07:01:20.639Z,967.33
2018-09-15T07:02:22.119Z,967.33
2018-09-15T07:03:20.598Z,967.34
2018-09-15T07:04:20.583Z,967.35
2018-09-15T07:05:20.561Z,967.35
2018-09-15T07:06:20.543Z,967.37
2018-09-15T07:07:20.523Z,967.40
2018-09-15T07:08:21.260Z,967.38
2018-09-15T07:09:20.487Z,967.42
2018-09-15T07:10:20.466Z,967.40
2018-09-15T07:11:20.447Z,967.45
2018-09-15T07:12:20.430Z,967.41
2018-09-15T07:13:20.414Z,967.45
2018-09-15T07:14:20.391Z,967.46
2018-09-15T07:15:20.372Z,967.42
2018-09-15T07:16:20.357Z,967.41
2018-09-15T07:17:20.337Z,967.37
2018-09-15T07:18:20.318Z,967.37
2018-09-15T07:19:25.555Z,967.34
2018-09-15T07:20:20.281Z,967.39
2018-09-15T07:21:20.262Z,967.37
2018-09-15T07:22:20.241Z,967.35
2018-09-15T07:23:20.236Z,967.38
2018-09-15T07:24:20.205Z,967.38
2018-09-15T07:25:24.691Z,967.37
2018-09-15T07:26:20.168Z,967.37
2018-09-15T07:27:20.149Z,967.35
2018-09-15T07:28:20.135Z,967.40
2018-09-15T07:29:20.114Z,967.35
2018-09-15T07:30:20.094Z,967.35
2018-09-15T07:31:20.102Z,967.35
2018-09-15T07:32:20.059Z,967.33
2018-09-15T07:33:20.039Z,967.32
2018-09-15T07:34:20.022Z,967.38
2018-09-15T07:35:20.002Z,967.32
2018-09-15T07:36:19.983Z,967.33
2018-09-15T07:37:19.966Z,967.35
2018-09-15T07:38:19.946Z,967.35
2018-09-15T07:39:19.929Z,967.36
2018-09-15T07:40:19.910Z,967.38
2018-09-15T07:41:19.892Z,967.38
2018-09-15T07:42:19.880Z,967.42
2018-09-15T07:43:19.855Z,967.44
2018-09-15T07:44:19.840Z,967.43
2018-09-15T07:45:19.819Z,967.52
2018-09-15T07:46:19.799Z,967.45
2018-09-15T07:47:19.785Z,967.53
2018-09-15T07:48:19.763Z,967.54
2018-09-15T07:49:19.749Z,967.51
2018-09-15T07:50:19.726Z,967.54
2018-09-15T07:51:19.708Z,967.60
2018-09-15T07:52:19.689Z,967.52
2018-09-15T07:53:19.671Z,967.55
2018-09-15T07:54:19.651Z,967.57
2018-09-15T07:55:19.633Z,967.60
2018-09-15T07:56:19.618Z,967.61
2018-09-15T07:57:19.640Z,967.63
2018-09-15T07:58:19.577Z,967.66
2018-09-15T07:59:19.558Z,967.68
2018-09-15T08:00:19.541Z,967.63
2018-09-15T08:01:19.524Z,967.63
2018-09-15T08:02:19.502Z,967.63
2018-09-15T08:03:19.484Z,967.62
2018-09-15T08:04:19.466Z,967.66
2018-09-15T08:05:19.448Z,967.59
2018-09-15T08:06:19.429Z,967.61
2018-09-15T08:07:19.411Z,967.64
2018-09-15T08:08:19.393Z,967.64
2018-09-15T08:09:19.374Z,967.67
2018-09-15T08:10:19.357Z,967.70
2018-09-15T08:11:19.338Z,967.64
2018-09-15T08:12:19.324Z,967.66
2018-09-15T08:13:19.301Z,967.69
2018-09-15T08:14:20.033Z,967.71
2018-09-15T08:15:19.265Z,967.66
2018-09-15T08:16:19.247Z,967.69
2018-09-15T08:17:19.231Z,967.65
2018-09-15T08:18:19.212Z,967.63
2018-09-15T08:19:19.192Z,967.65
2018-09-15T08:20:19.177Z,967.67
2018-09-15T08:21:19.157Z,967.66
2018-09-15T08:22:19.138Z,967.66
2018-09-15T08:23:19.121Z,967.66
2018-09-15T08:24:19.110Z,967.63
2018-09-15T08:25:19.085Z,967.56
2018-09-15T08:26:19.163Z,967.65
2018-09-15T08:27:19.051Z,967.59
2018-09-15T08:28:19.032Z,967.61
2018-09-15T08:29:19.015Z,967.59
2018-09-15T08:30:18.997Z,967.59
2018-09-15T08:31:18.979Z,967.60
2018-09-15T08:32:18.961Z,967.62
2018-09-15T08:33:18.945Z,967.61
2018-09-15T08:34:18.928Z,967.61
2018-09-15T08:35:18.908Z,967.64
2018-09-15T08:36:18.891Z,967.62
2018-09-15T08:37:18.880Z,967.66
2018-09-15T08:38:18.855Z,967.61
2018-09-15T08:39:18.839Z,967.68
2018-09-15T08:40:18.820Z,967.70
2018-09-15T08:41:18.849Z,967.65
2018-09-15T08:42:18.785Z,967.60
2018-09-15T08:43:18.769Z,967.60
2018-09-15T08:44:18.752Z,967.63
2018-09-15T08:45:18.735Z,967.58
2018-09-15T08:46:18.716Z,967.64
2018-09-15T08:47:18.698Z,967.54
2018-09-15T08:48:18.743Z,967.52
2018-09-15T08:49:18.666Z,967.57
2018-09-15T08:50:18.646Z,967.55
2018-09-15T08:51:18.629Z,967.58
2018-09-15T08:52:18.613Z,967.64
2018-09-15T08:53:18.596Z,967.61
2018-09-15T08:54:18.575Z,967.66
2018-09-15T08:55:18.558Z,967.60
2018-09-15T08:56:18.573Z,967.58
2018-09-15T08:57:18.524Z,967.55
2018-09-15T08:58:18.506Z,967.59
2018-09-15T08:59:18.488Z,967.56
2018-09-15T09:00:18.471Z,967.58
2018-09-15T09:01:18.454Z,967.56
2018-09-15T09:02:19.185Z,967.53
2018-09-15T09:03:18.418Z,967.54
2018-09-15T09:04:18.400Z,967.54
2018-09-15T09:05:18.383Z,967.50
2018-09-15T09:06:18.364Z,967.51
2018-09-15T09:07:18.347Z,967.55
2018-09-15T09:08:18.329Z,967.55
2018-09-15T09:09:18.311Z,967.56
2018-09-15T09:10:18.344Z,967.58
2018-09-15T09:11:18.276Z,967.60
2018-09-15T09:12:18.259Z,967.61
2018-09-15T09:13:18.242Z,967.61
2018-09-15T09:14:18.222Z,967.60
2018-09-15T09:15:18.206Z,967.60
2018-09-15T09:16:18.188Z,967.63
2018-09-15T09:17:18.169Z,967.65
2018-09-15T09:18:18.151Z,967.66
2018-09-15T09:19:18.133Z,967.67
2018-09-15T09:20:18.115Z,967.65
2018-09-15T09:21:18.097Z,967.68
2018-09-15T09:22:18.078Z,967.67
2018-09-15T09:23:18.062Z,967.66
2018-09-15T09:24:18.044Z,967.71
2018-09-15T09:25:18.028Z,967.71
2018-09-15T09:26:18.056Z,967.66
2018-09-15T09:27:17.990Z,967.63
2018-09-15T09:28:23.229Z,967.62
2018-09-15T09:29:17.954Z,967.61
2018-09-15T09:30:17.936Z,967.64
2018-09-15T09:31:17.922Z,967.57
2018-09-15T09:32:17.970Z,967.61
2018-09-15T09:33:17.954Z,967.63
2018-09-15T09:34:17.866Z,967.59
2018-09-15T09:35:17.849Z,967.62
2018-09-15T09:36:17.830Z,967.61
2018-09-15T09:37:17.812Z,967.67
2018-09-15T09:38:17.826Z,967.68
2018-09-15T09:39:17.781Z,967.71
2018-09-15T09:40:17.759Z,967.69
2018-09-15T09:41:17.757Z,967.75
2018-09-15T09:42:17.723Z,967.73
2018-09-15T09:43:17.705Z,967.70
2018-09-15T09:44:17.691Z,967.72
2018-09-15T09:45:17.670Z,967.70
2018-09-15T09:46:17.651Z,967.66
2018-09-15T09:47:17.635Z,967.64
2018-09-15T09:48:17.638Z,967.65
2018-09-15T09:49:17.599Z,967.66
2018-09-15T09:50:18.331Z,967.66
2018-09-15T09:51:17.563Z,967.66
2018-09-15T09:52:17.545Z,967.63
2018-09-15T09:53:17.529Z,967.64
2018-09-15T09:54:17.510Z,967.65
2018-09-15T09:55:17.492Z,967.64
2018-09-15T09:56:17.475Z,967.63
2018-09-15T09:57:17.458Z,967.67
2018-09-15T09:58:17.440Z,967.68
2018-09-15T09:59:17.426Z,967.67
2018-09-15T10:00:17.406Z,967.66
2018-09-15T10:01:17.418Z,967.69
2018-09-15T10:02:17.371Z,967.71
2018-09-15T10:03:17.354Z,967.65
2018-09-15T10:04:17.338Z,967.66
2018-09-15T10:05:17.320Z,967.69
2018-09-15T10:06:17.329Z,967.63
2018-09-15T10:07:17.283Z,967.63
2018-09-15T10:08:17.265Z,967.65
2018-09-15T10:09:17.250Z,967.60
2018-09-15T10:10:17.230Z,967.58
2018-09-15T10:11:17.213Z,967.59
2018-09-15T10:12:17.196Z,967.56
2018-09-15T10:13:17.178Z,967.62
2018-09-15T10:14:17.161Z,967.62
2018-09-15T10:15:17.148Z,967.54
2018-09-15T10:16:17.145Z,967.53
2018-09-15T10:17:17.111Z,967.55
2018-09-15T10:18:17.094Z,967.58
2018-09-15T10:19:17.074Z,967.55
2018-09-15T10:20:17.056Z,967.59
2018-09-15T10:21:17.041Z,967.56
2018-09-15T10:22:17.024Z,967.53
2018-09-15T10:23:17.005Z,967.50
2018-09-15T10:24:16.987Z,967.52
2018-09-15T10:25:16.969Z,967.57
2018-09-15T10:26:16.951Z,967.49
2018-09-15T10:27:16.933Z,967.51
2018-09-15T10:28:16.918Z,967.55
2018-09-15T10:29:16.900Z,967.51
2018-09-15T10:30:16.884Z,967.52
2018-09-15T10:31:16.864Z,967.48
2018-09-15T10:32:16.847Z,967.44
2018-09-15T10:33:16.831Z,967.48
2018-09-15T10:34:16.812Z,967.50
2018-09-15T10:35:16.795Z,967.53
2018-09-15T10:36:16.777Z,967.52
2018-09-15T10:37:16.760Z,967.50
2018-09-15T10:38:16.742Z,967.43
2018-09-15T10:39:16.726Z,967.46
2018-09-15T10:40:16.731Z,967.44
2018-09-15T10:41:16.691Z,967.49
2018-09-15T10:42:16.675Z,967.51
2018-09-15T10:43:16.657Z,967.47
2018-09-15T10:44:16.639Z,967.49
2018-09-15T10:45:16.622Z,967.47
2018-09-15T10:46:16.605Z,967.49
2018-09-15T10:47:16.587Z,967.49
2018-09-15T10:48:16.570Z,967.46
2018-09-15T10:49:16.555Z,967.46
2018-09-15T10:50:16.535Z,967.48
2018-09-15T10:51:16.526Z,967.45
2018-09-15T10:52:16.505Z,967.41
2018-09-15T10:53:16.483Z,967.37
2018-09-15T10:54:16.466Z,967.40
2018-09-15T10:55:16.450Z,967.41
2018-09-15T10:56:16.432Z,967.40
2018-09-15T10:57:16.415Z,967.42
2018-09-15T10:58:16.398Z,967.37
2018-09-15T10:59:18.632Z,967.35
2018-09-15T11:00:16.426Z,967.37
2018-09-15T11:01:16.350Z,967.41
2018-09-15T11:02:16.332Z,967.39
2018-09-15T11:03:16.310Z,967.36
2018-09-15T11:04:16.293Z,967.35
2018-09-15T11:05:20.781Z,967.34
2018-09-15T11:06:16.260Z,967.31
2018-09-15T11:07:16.242Z,967.31
2018-09-15T11:08:16.225Z,967.29
2018-09-15T11:09:16.207Z,967.28
2018-09-15T11:10:16.189Z,967.25
2018-09-15T11:11:16.172Z,967.26
2018-09-15T11:12:16.155Z,967.28
2018-09-15T11:13:16.164Z,967.23
2018-09-15T11:14:16.120Z,967.24
2018-09-15T11:15:16.104Z,967.27
2018-09-15T11:16:16.092Z,967.21
2018-09-15T11:17:16.070Z,967.23
2018-09-15T11:18:16.053Z,967.18
2018-09-15T11:19:16.035Z,967.19
2018-09-15T11:20:16.018Z,967.23
2018-09-15T11:21:16.001Z,967.16
2018-09-15T11:22:16.735Z,967.18
2018-09-15T11:23:15.968Z,967.15
2018-09-15T11:24:15.952Z,967.13
2018-09-15T11:25:15.932Z,967.17
2018-09-15T11:26:15.915Z,967.17
2018-09-15T11:27:15.898Z,967.21
2018-09-15T11:28:15.881Z,967.19
2018-09-15T11:29:15.864Z,967.19
2018-09-15T11:30:15.846Z,967.19
2018-09-15T11:31:15.830Z,967.21
2018-09-15T11:32:15.813Z,967.21
2018-09-15T11:33:15.795Z,967.14
2018-09-15T11:34:15.842Z,967.12
2018-09-15T11:35:15.761Z,967.13
2018-09-15T11:36:15.746Z,967.14
2018-09-15T11:37:15.729Z,967.16
2018-09-15T11:38:17.213Z,967.13
2018-09-15T11:39:15.695Z,967.16
2018-09-15T11:40:15.676Z,967.16
2018-09-15T11:41:15.746Z,967.18
2018-09-15T11:42:15.642Z,967.18
2018-09-15T11:43:15.625Z,967.15
2018-09-15T11:44:15.608Z,967.14
2018-09-15T11:45:15.592Z,967.13
2018-09-15T11:46:15.575Z,967.12
2018-09-15T11:47:15.559Z,967.07
2018-09-15T11:48:15.542Z,967.07
2018-09-15T11:49:15.526Z,967.05
2018-09-15T11:50:15.509Z,967.08
2018-09-15T11:51:15.491Z,967.03
2018-09-15T11:52:15.474Z,967.05
2018-09-15T11:53:15.459Z,967.04
2018-09-15T11:54:15.443Z,967.05
2018-09-15T11:55:15.424Z,967.03
2018-09-15T11:56:15.408Z,967.04
2018-09-15T11:57:15.392Z,967.06
2018-09-15T11:58:15.374Z,967.07
2018-09-15T11:59:15.356Z,967.06
2018-09-15T12:00:15.341Z,967.05
2018-09-15T12:01:15.323Z,967.04
2018-09-15T12:02:15.309Z,967.04
2018-09-15T12:03:15.291Z,967.03
2018-09-15T12:04:15.275Z,967.00
2018-09-15T12:05:15.258Z,967.03
2018-09-15T12:06:17.492Z,967.01
2018-09-15T12:07:15.227Z,967.02
2018-09-15T12:08:15.207Z,966.98
2018-09-15T12:09:15.191Z,966.99
2018-09-15T12:10:15.175Z,966.97
2018-09-15T12:11:15.162Z,966.98
2018-09-15T12:12:15.141Z,966.94
2018-09-15T12:13:15.125Z,966.92
2018-09-15T12:14:15.130Z,966.93
2018-09-15T12:15:15.093Z,966.92
2018-09-15T12:16:15.077Z,966.93
2018-09-15T12:17:15.063Z,966.91
2018-09-15T12:18:15.043Z,966.95
2018-09-15T12:19:15.029Z,966.92
2018-09-15T12:20:15.018Z,966.94
2018-09-15T12:21:15.001Z,966.91
2018-09-15T12:22:14.979Z,966.87
2018-09-15T12:23:14.963Z,966.89
2018-09-15T12:24:14.947Z,966.89
2018-09-15T12:25:14.931Z,966.89
2018-09-15T12:26:14.914Z,966.88
2018-09-15T12:27:14.898Z,966.88
2018-09-15T12:28:14.882Z,966.85